الصفحة الرئيسية
METAR-TAF:

METAR-TAF

مطار :

Liberia, كوستاريكا

دائرة عرض: 10-37N, خط طول: 085-26W, ارتفاع: 80 متر

مراقبة الطقس الحالي

تاريخ ووقت الإصدار 18 دقيقة قبل الساعة 21:00UTC
ريح 15 عقدة من الشرق
درجة الحرارة 35°درجة مئوية
الرطوبة 42%
ضغط 1008 hPa
الرؤية 10 كم أو أكثر
غيوم قليلة على ارتفاع 4500 قدم

METAR: MRLB 232100Z 08015KT 9999 FEW045 35/20 A2977 NOSIG

زمن: 15:18 (21:18 UTC)

توقعات

تاريخ ووقت الإصدار 4ساعات و 18 دقيقة قبل الساعة 17:00UTC
التوقعات صالحة من23 الساعة 18 UTC إلى 24 الساعة 18 UTC
ريح 15 عقدة من الشرق
الرؤية 10 كم أو أكثر
غيوم قليلة على ارتفاع 4000 قدم
مؤقت
من 24 الساعة 09 UTC إلى 24 الساعة 13 UTC
ريح 4 عقدة من الغرب

TAF: MRLB 231700Z 2318/2418 09015KT 9999 FEW040 TX35/2319Z TN20/2411Z TEMPO 2409/2413 26004KT

أرصاد الطقس والتوقعات من أكثر من 4000 مطار (تقارير الطقس للمطار METAR والتنبؤ بالطقس بالمطارTAF).

المحطات المتاحة هي النقط الصفراء والحمراء على الخريطة.

حرك المؤشر فوق النقطة لمعرفة اسم المحطة.

ثم انقر لمعرفة أرصاد وتوقعات الطقس.

لتغيير الخارطة: اضغط على الأزرار الخضراء مع رمز الصليب الأسود للتكبير. على الزر الأخضر مع شرطة للتصغير، أو على الأسهم الخضراء للخرائط المجاورة.


METAR-TAF: